createdAt,value
2018-09-09T00:00:59.018Z,8.67
2018-09-09T00:03:31.206Z,6.53
2018-09-09T00:06:02.737Z,7.03
2018-09-09T00:08:34.633Z,9.70
2018-09-09T00:11:06.216Z,5.77
2018-09-09T00:13:38.318Z,7.90
2018-09-09T00:16:10.263Z,10.37
2018-09-09T00:18:42.199Z,8.77
2018-09-09T00:21:13.752Z,8.53
2018-09-09T00:23:45.436Z,8.90
2018-09-09T00:26:16.750Z,8.90
2018-09-09T00:28:48.529Z,8.20
2018-09-09T00:31:20.472Z,7.20
2018-09-09T00:33:51.889Z,8.60
2018-09-09T00:36:23.333Z,6.63
2018-09-09T00:38:54.868Z,7.90
2018-09-09T00:41:26.362Z,8.03
2018-09-09T00:43:58.216Z,6.90
2018-09-09T00:49:35.208Z,7.50
2018-09-09T00:52:11.408Z,6.83
2018-09-09T00:54:42.684Z,8.03
2018-09-09T00:57:13.664Z,7.53
2018-09-09T00:59:44.754Z,7.17
2018-09-09T01:02:16.204Z,6.63
2018-09-09T01:04:47.485Z,7.33
2018-09-09T01:07:18.661Z,6.53
2018-09-09T01:09:49.841Z,6.73
2018-09-09T01:12:20.790Z,6.90
2018-09-09T01:14:51.827Z,7.00
2018-09-09T01:17:22.919Z,6.73
2018-09-09T01:22:24.612Z,6.40
2018-09-09T01:24:55.850Z,8.43
2018-09-09T01:27:26.844Z,7.53
2018-09-09T01:29:57.778Z,7.30
2018-09-09T01:32:28.824Z,6.53
2018-09-09T01:34:59.992Z,7.67
2018-09-09T01:37:31.572Z,7.33
2018-09-09T01:40:03.295Z,7.50
2018-09-09T01:42:34.795Z,6.57
2018-09-09T01:45:06.431Z,7.77
2018-09-09T01:47:37.958Z,7.27
2018-09-09T01:52:40.372Z,6.83
2018-09-09T01:55:12.395Z,6.73
2018-09-09T01:57:43.866Z,6.83
2018-09-09T02:00:15.610Z,6.60
2018-09-09T02:02:47.903Z,5.90
2018-09-09T02:05:19.590Z,6.75
2018-09-09T02:07:51.226Z,5.97
2018-09-09T02:10:22.711Z,7.20
2018-09-09T02:12:54.206Z,6.27
2018-09-09T02:15:26.329Z,6.50
2018-09-09T02:17:57.776Z,6.00
2018-09-09T02:20:29.435Z,6.30
2018-09-09T02:23:00.841Z,5.73
2018-09-09T02:25:32.306Z,8.27
2018-09-09T02:28:03.860Z,7.30
2018-09-09T02:30:35.421Z,8.73
2018-09-09T02:33:06.814Z,7.43
2018-09-09T02:35:38.420Z,6.33
2018-09-09T02:38:09.979Z,5.97
2018-09-09T02:43:12.219Z,5.90
2018-09-09T02:45:43.747Z,6.60
2018-09-09T02:48:15.203Z,6.40
2018-09-09T02:50:46.743Z,6.27
2018-09-09T02:53:18.309Z,6.43
2018-09-09T02:55:49.776Z,7.17
2018-09-09T02:58:21.316Z,6.53
2018-09-09T03:00:52.795Z,7.47
2018-09-09T03:03:24.295Z,6.30
2018-09-09T03:05:55.812Z,6.00
2018-09-09T03:08:27.396Z,6.13
2018-09-09T03:11:03.720Z,9.37
2018-09-09T03:13:35.408Z,7.57
2018-09-09T03:16:06.805Z,6.17
2018-09-09T03:18:38.409Z,6.60
2018-09-09T03:21:09.904Z,6.20
2018-09-09T03:23:41.544Z,6.23
2018-09-09T03:26:13.197Z,7.37
2018-09-09T03:28:44.826Z,7.73
2018-09-09T03:31:16.366Z,7.07
2018-09-09T03:33:47.840Z,5.90
2018-09-09T03:36:19.453Z,6.13
2018-09-09T03:38:51.226Z,5.97
2018-09-09T03:41:22.802Z,6.20
2018-09-09T03:43:54.358Z,6.93
2018-09-09T03:46:25.798Z,6.33
2018-09-09T03:48:57.543Z,6.97
2018-09-09T03:51:29.209Z,6.80
2018-09-09T03:54:00.721Z,6.23
2018-09-09T03:56:32.321Z,6.20
2018-09-09T03:59:03.866Z,7.87
2018-09-09T04:01:35.444Z,5.67
2018-09-09T04:04:06.912Z,5.57
2018-09-09T04:09:10.388Z,6.43
2018-09-09T04:11:41.984Z,6.37
2018-09-09T04:14:13.500Z,6.17
2018-09-09T04:16:45.187Z,6.03
2018-09-09T04:19:16.697Z,6.07
2018-09-09T04:21:51.686Z,6.07
2018-09-09T04:24:24.555Z,5.93
2018-09-09T04:26:56.207Z,5.67
2018-09-09T04:29:27.721Z,5.90
2018-09-09T04:31:59.315Z,5.90
2018-09-09T04:34:30.784Z,6.27
2018-09-09T04:37:02.375Z,5.93
2018-09-09T04:39:33.754Z,6.57
2018-09-09T04:42:05.376Z,5.50
2018-09-09T04:44:36.752Z,7.23
2018-09-09T04:47:08.287Z,6.07
2018-09-09T04:49:39.741Z,5.80
2018-09-09T04:52:11.407Z,5.97
2018-09-09T04:54:42.911Z,5.37
2018-09-09T04:59:44.976Z,5.80
2018-09-09T05:02:16.528Z,6.27
2018-09-09T05:04:47.871Z,5.40
2018-09-09T05:07:19.452Z,5.73
2018-09-09T05:09:51.009Z,5.43
2018-09-09T05:12:22.788Z,6.73
2018-09-09T05:14:54.664Z,7.23
2018-09-09T05:17:26.383Z,6.20
2018-09-09T05:19:57.896Z,5.73
2018-09-09T05:22:29.483Z,5.90
2018-09-09T05:25:00.884Z,5.53
2018-09-09T05:27:32.648Z,5.17
2018-09-09T05:30:04.204Z,5.47
2018-09-09T05:32:35.764Z,5.37
2018-09-09T05:35:07.261Z,5.20
2018-09-09T05:37:38.876Z,5.90
2018-09-09T05:40:10.387Z,5.20
2018-09-09T05:42:42.063Z,6.53
2018-09-09T05:45:13.720Z,7.30
2018-09-09T05:47:45.445Z,6.30
2018-09-09T05:50:16.842Z,5.37
2018-09-09T05:52:48.715Z,5.63
2018-09-09T05:55:20.313Z,5.10
2018-09-09T05:57:52.036Z,5.77
2018-09-09T06:00:23.656Z,5.40
2018-09-09T06:02:55.324Z,5.20
2018-09-09T06:05:26.850Z,5.33
2018-09-09T06:07:58.473Z,4.53
2018-09-09T06:10:29.843Z,5.70
2018-09-09T06:13:01.793Z,5.07
2018-09-09T06:15:33.250Z,5.73
2018-09-09T06:18:04.463Z,4.90
2018-09-09T06:20:35.913Z,5.97
2018-09-09T06:25:38.372Z,4.57
2018-09-09T06:28:09.839Z,5.27
2018-09-09T06:30:41.354Z,5.37
2018-09-09T06:33:12.858Z,5.00
2018-09-09T06:35:44.382Z,5.23
2018-09-09T06:38:16.034Z,5.47
2018-09-09T06:40:47.683Z,6.13
2018-09-09T06:43:19.423Z,5.07
2018-09-09T06:45:50.978Z,5.67
2018-09-09T06:48:22.741Z,5.00
2018-09-09T06:50:54.433Z,5.67
2018-09-09T06:53:26.228Z,4.83
2018-09-09T06:56:03.679Z,5.87
2018-09-09T06:58:36.598Z,6.63
2018-09-09T07:01:08.396Z,5.80
2018-09-09T07:03:39.989Z,4.63
2018-09-09T07:06:11.691Z,6.13
2018-09-09T07:08:43.205Z,4.70
2018-09-09T07:11:14.724Z,5.67
2018-09-09T07:13:46.321Z,5.90
2018-09-09T07:16:17.819Z,5.10
2018-09-09T07:18:49.459Z,5.23
2018-09-09T07:21:20.983Z,4.97
2018-09-09T07:23:52.540Z,7.67
2018-09-09T07:26:23.869Z,4.50
2018-09-09T07:28:55.409Z,4.43
2018-09-09T07:31:27.226Z,4.93
2018-09-09T07:33:59.766Z,4.90
2018-09-09T07:36:31.361Z,4.70
2018-09-09T07:39:03.288Z,7.13
2018-09-09T07:41:34.826Z,4.67
2018-09-09T07:44:06.441Z,5.83
2018-09-09T07:46:37.727Z,5.10
2018-09-09T07:49:08.803Z,5.30
2018-09-09T07:51:40.033Z,4.90
2018-09-09T07:54:11.750Z,6.13
2018-09-09T07:56:43.215Z,4.40
2018-09-09T07:59:14.766Z,4.40
2018-09-09T08:01:46.369Z,4.80
2018-09-09T08:04:18.223Z,5.30
2018-09-09T08:06:49.703Z,6.00
2018-09-09T08:09:21.364Z,6.97
2018-09-09T08:11:52.872Z,5.73
2018-09-09T08:14:24.535Z,4.70
2018-09-09T08:16:56.196Z,4.73
2018-09-09T08:19:27.724Z,5.63
2018-09-09T08:21:59.234Z,4.83
2018-09-09T08:24:30.700Z,4.37
2018-09-09T08:27:02.394Z,4.17
2018-09-09T08:33:07.476Z,4.58
2018-09-09T08:35:38.612Z,5.60
2018-09-09T08:38:09.677Z,4.13
2018-09-09T08:40:41.216Z,5.03
2018-09-09T08:43:12.353Z,4.20
2018-09-09T08:45:44.357Z,4.53
2018-09-09T08:48:15.601Z,4.87
2018-09-09T08:50:47.202Z,4.47
2018-09-09T08:53:18.865Z,4.47
2018-09-09T08:55:50.538Z,4.30
2018-09-09T08:58:21.952Z,4.50
2018-09-09T09:03:24.226Z,4.47
2018-09-09T09:05:55.798Z,4.70
2018-09-09T09:08:27.403Z,4.87
2018-09-09T09:10:59.070Z,4.63
2018-09-09T09:13:30.793Z,4.50
2018-09-09T09:16:02.402Z,4.90
2018-09-09T09:18:34.076Z,6.47
2018-09-09T09:21:05.656Z,4.17
2018-09-09T09:23:37.279Z,3.60
2018-09-09T09:26:08.758Z,4.03
2018-09-09T09:28:39.823Z,4.57
2018-09-09T09:31:11.233Z,4.33
2018-09-09T09:33:42.738Z,4.50
2018-09-09T09:36:14.226Z,4.13
2018-09-09T09:38:45.841Z,3.83
2018-09-09T09:41:17.411Z,4.37
2018-09-09T09:43:49.011Z,5.70
2018-09-09T09:46:20.702Z,4.47
2018-09-09T09:48:52.222Z,4.53
2018-09-09T09:51:23.801Z,4.10
2018-09-09T09:53:55.337Z,3.53
2018-09-09T09:56:26.808Z,6.13
2018-09-09T09:58:58.364Z,3.57
2018-09-09T10:01:29.730Z,5.20
2018-09-09T10:04:01.413Z,4.83
2018-09-09T10:06:32.998Z,3.73
2018-09-09T10:11:26.713Z,3.80
2018-09-09T10:13:57.780Z,3.93
2018-09-09T10:16:28.838Z,3.90
2018-09-09T10:18:59.870Z,3.97
2018-09-09T10:21:30.863Z,4.57
2018-09-09T10:24:01.875Z,3.73
2018-09-09T10:26:33.187Z,4.07
2018-09-09T10:29:04.426Z,3.93
2018-09-09T10:31:35.625Z,3.77
2018-09-09T10:34:06.983Z,3.67
2018-09-09T10:36:38.863Z,3.75
2018-09-09T10:39:12.683Z,4.67
2018-09-09T10:41:43.665Z,4.23
2018-09-09T10:44:14.755Z,3.93
2018-09-09T10:46:45.922Z,3.47
2018-09-09T10:51:47.739Z,3.60
2018-09-09T10:54:18.891Z,3.70
2018-09-09T10:56:49.834Z,4.30
2018-09-09T10:59:20.890Z,3.77
2018-09-09T11:01:51.815Z,3.87
2018-09-09T11:04:22.843Z,4.10
2018-09-09T11:06:54.584Z,3.40
2018-09-09T11:09:25.676Z,3.73
2018-09-09T11:11:56.718Z,3.60
2018-09-09T11:14:27.927Z,3.37
2018-09-09T11:19:29.653Z,3.37
2018-09-09T11:22:00.763Z,3.50
2018-09-09T11:24:31.903Z,3.20
2018-09-09T11:27:03.310Z,3.67
2018-09-09T11:29:34.830Z,3.10
2018-09-09T11:32:07.393Z,3.53
2018-09-09T11:34:38.804Z,3.23
2018-09-09T11:37:09.821Z,3.10
2018-09-09T11:39:40.895Z,3.40
2018-09-09T11:42:12.583Z,3.50
2018-09-09T11:44:44.209Z,3.97
2018-09-09T11:47:15.719Z,3.37
2018-09-09T11:49:47.319Z,4.43
2018-09-09T11:52:18.806Z,3.27
2018-09-09T11:54:50.428Z,3.83
2018-09-09T11:57:22.680Z,3.57
2018-09-09T11:59:54.215Z,3.60
2018-09-09T12:02:26.221Z,3.67
2018-09-09T12:04:57.790Z,3.03
2018-09-09T12:07:29.415Z,3.47
2018-09-09T12:10:00.732Z,3.30
2018-09-09T12:12:32.229Z,3.13
2018-09-09T12:15:37.429Z,2.90
2018-09-09T12:18:08.892Z,2.80
2018-09-09T12:20:40.435Z,3.30
2018-09-09T12:23:12.438Z,3.40
2018-09-09T12:25:44.017Z,3.93
2018-09-09T12:28:15.694Z,2.90
2018-09-09T12:30:47.234Z,2.80
2018-09-09T12:33:18.781Z,3.77
2018-09-09T12:35:50.374Z,3.77
2018-09-09T12:38:22.000Z,3.00
2018-09-09T12:40:53.556Z,3.57
2018-09-09T12:44:31.328Z,3.60
2018-09-09T12:47:08.057Z,3.37
2018-09-09T12:49:39.744Z,3.47
2018-09-09T12:52:11.418Z,3.40
2018-09-09T12:54:42.801Z,3.53
2018-09-09T12:57:14.235Z,3.30
2018-09-09T12:59:45.779Z,3.20
2018-09-09T13:02:17.746Z,3.47
2018-09-09T13:04:49.317Z,3.40
2018-09-09T13:07:20.810Z,3.20
2018-09-09T13:09:52.406Z,3.43
2018-09-09T13:12:23.892Z,3.97
2018-09-09T13:17:26.207Z,4.00
2018-09-09T13:19:57.732Z,2.93
2018-09-09T13:22:29.440Z,3.27
2018-09-09T13:25:01.031Z,3.90
2018-09-09T13:30:51.917Z,3.00
2018-09-09T13:33:22.851Z,2.90
2018-09-09T13:35:53.865Z,3.30
2018-09-09T13:38:24.845Z,3.07
2018-09-09T13:40:55.774Z,4.03
2018-09-09T13:43:26.828Z,3.20
2018-09-09T13:45:57.833Z,3.20
2018-09-09T13:48:28.940Z,3.83
2018-09-09T13:50:59.822Z,3.20
2018-09-09T13:53:30.870Z,3.17
2018-09-09T13:56:01.843Z,3.40
2018-09-09T13:58:32.860Z,3.33
2018-09-09T14:01:04.230Z,2.70
2018-09-09T14:03:35.465Z,3.20
2018-09-09T14:06:06.703Z,2.80
2018-09-09T14:08:37.769Z,3.43
2018-09-09T14:11:09.330Z,2.77
2018-09-09T14:13:40.753Z,3.43
2018-09-09T14:16:12.225Z,2.73
2018-09-09T14:18:43.810Z,3.03
2018-09-09T14:21:15.321Z,3.13
2018-09-09T14:23:46.830Z,3.17
2018-09-09T14:26:18.448Z,3.10
2018-09-09T14:28:49.894Z,3.07
2018-09-09T14:31:21.463Z,3.00
2018-09-09T14:33:52.876Z,3.10
2018-09-09T14:36:24.368Z,2.93
2018-09-09T14:38:56.004Z,2.90
2018-09-09T14:41:27.555Z,2.70
2018-09-09T14:43:59.604Z,3.40
2018-09-09T14:46:31.224Z,3.13
2018-09-09T14:49:02.767Z,2.70
2018-09-09T14:51:34.039Z,2.73
2018-09-09T14:54:05.360Z,2.70
2018-09-09T14:56:36.784Z,3.47
2018-09-09T14:59:07.797Z,2.83
2018-09-09T15:01:42.045Z,2.87
2018-09-09T15:04:13.684Z,3.03
2018-09-09T15:06:45.246Z,2.80
2018-09-09T15:09:16.784Z,2.77
2018-09-09T15:11:48.428Z,3.03
2018-09-09T15:14:19.917Z,3.03
2018-09-09T15:19:21.903Z,2.73
2018-09-09T15:24:24.231Z,3.13
2018-09-09T15:26:55.679Z,2.70
2018-09-09T15:29:27.072Z,2.90
2018-09-09T15:31:58.779Z,3.40
2018-09-09T15:34:31.026Z,2.50
2018-09-09T15:37:02.738Z,3.30
2018-09-09T15:39:34.326Z,2.90
2018-09-09T15:42:05.803Z,3.00
2018-09-09T15:44:37.428Z,3.00
2018-09-09T15:47:09.305Z,2.80
2018-09-09T15:49:40.810Z,2.57
2018-09-09T15:52:12.371Z,2.83
2018-09-09T15:54:43.834Z,2.80
2018-09-09T15:57:15.446Z,4.10
2018-09-09T15:59:46.846Z,2.70
2018-09-09T16:02:18.430Z,2.80
2018-09-09T16:04:49.986Z,2.97
2018-09-09T16:07:22.007Z,2.80
2018-09-09T16:09:53.560Z,2.77
2018-09-09T16:12:24.984Z,2.70
2018-09-09T16:14:56.558Z,2.63
2018-09-09T16:17:27.978Z,2.93
2018-09-09T16:19:59.640Z,2.90
2018-09-09T16:22:31.221Z,2.73
2018-09-09T16:25:02.753Z,2.80
2018-09-09T16:27:34.348Z,2.80
2018-09-09T16:30:06.705Z,2.70
2018-09-09T16:32:38.321Z,2.70
2018-09-09T16:35:09.745Z,2.77
2018-09-09T16:37:41.322Z,2.60
2018-09-09T16:40:12.749Z,2.60
2018-09-09T16:42:44.347Z,3.03
2018-09-09T16:45:15.512Z,2.93
2018-09-09T16:47:47.206Z,2.60
2018-09-09T16:50:18.701Z,2.20
2018-09-09T16:52:50.259Z,2.33
2018-09-09T16:55:21.684Z,2.60
2018-09-09T16:57:53.321Z,2.90
2018-09-09T17:00:24.809Z,2.73
2018-09-09T17:02:56.332Z,3.00
2018-09-09T17:05:27.802Z,2.93
2018-09-09T17:07:59.394Z,2.97
2018-09-09T17:10:30.720Z,4.17
2018-09-09T17:13:02.350Z,2.87
2018-09-09T17:15:37.214Z,2.90
2018-09-09T17:18:08.696Z,2.60
2018-09-09T17:20:40.311Z,2.60
2018-09-09T17:23:11.821Z,2.70
2018-09-09T17:25:43.308Z,2.93
2018-09-09T17:28:14.843Z,2.93
2018-09-09T17:30:46.329Z,2.60
2018-09-09T17:33:17.795Z,2.60
2018-09-09T17:35:49.410Z,4.17
2018-09-09T17:38:20.866Z,2.40
2018-09-09T17:40:52.388Z,2.50
2018-09-09T17:43:23.917Z,2.20
2018-09-09T17:48:26.218Z,2.70
2018-09-09T17:50:57.725Z,2.73
2018-09-09T17:53:29.584Z,3.00
2018-09-09T17:56:01.374Z,2.73
2018-09-09T17:58:32.969Z,2.50
2018-09-09T18:03:35.212Z,3.83
2018-09-09T18:06:06.789Z,2.10
2018-09-09T18:08:38.457Z,2.60
2018-09-09T18:11:09.777Z,2.37
2018-09-09T18:13:41.414Z,2.40
2018-09-09T18:16:12.827Z,2.57
2018-09-09T18:18:44.057Z,2.73
2018-09-09T18:21:15.692Z,3.03
2018-09-09T18:23:47.308Z,2.60
2018-09-09T18:26:19.304Z,2.40
2018-09-09T18:28:50.846Z,2.33
2018-09-09T18:31:22.302Z,2.20
2018-09-09T18:33:53.773Z,2.57
2018-09-09T18:36:25.416Z,2.43
2018-09-09T18:38:57.135Z,2.40
2018-09-09T18:41:28.703Z,2.53
2018-09-09T18:44:00.213Z,2.60
2018-09-09T18:46:31.732Z,2.67
2018-09-09T18:49:03.455Z,2.47
2018-09-09T18:51:35.008Z,2.53
2018-09-09T18:54:06.705Z,2.87
2018-09-09T18:56:38.337Z,2.80
2018-09-09T18:59:09.818Z,2.57
2018-09-09T19:01:41.441Z,2.60
2018-09-09T19:04:12.819Z,2.70
2018-09-09T19:08:32.563Z,2.40
2018-09-09T19:11:03.427Z,2.40
2018-09-09T19:13:34.639Z,2.87
2018-09-09T19:16:05.658Z,2.50
2018-09-09T19:18:36.706Z,2.53
2018-09-09T19:21:07.752Z,6.43
2018-09-09T19:23:39.305Z,2.57
2018-09-09T19:26:10.735Z,3.20
2018-09-09T19:28:42.331Z,2.57
2018-09-09T19:31:13.771Z,2.87
2018-09-09T19:33:45.380Z,2.50
2018-09-09T19:36:16.788Z,2.30
2018-09-09T19:38:48.402Z,2.27
2018-09-09T19:41:19.781Z,2.40
2018-09-09T19:43:51.377Z,2.33
2018-09-09T19:46:22.793Z,2.47
2018-09-09T19:48:54.304Z,2.20
2018-09-09T19:51:25.728Z,2.47
2018-09-09T19:53:56.787Z,2.30
2018-09-09T19:56:27.772Z,2.33
2018-09-09T19:58:58.875Z,2.73
2018-09-09T20:01:30.438Z,2.47
2018-09-09T20:04:01.776Z,2.50
2018-09-09T20:06:32.781Z,2.70
2018-09-09T20:09:03.873Z,3.00
2018-09-09T20:11:35.511Z,2.60
2018-09-09T20:14:07.458Z,2.50
2018-09-09T20:16:39.263Z,2.40
2018-09-09T20:19:10.602Z,3.60
2018-09-09T20:21:42.448Z,2.57
2018-09-09T20:24:13.777Z,2.10
2018-09-09T20:26:45.338Z,2.60
2018-09-09T20:29:16.655Z,2.65
2018-09-09T20:31:48.205Z,2.55
2018-09-09T20:34:19.750Z,2.57
2018-09-09T20:36:51.560Z,2.70
2018-09-09T20:39:22.994Z,3.93
2018-09-09T20:41:54.800Z,2.47
2018-09-09T20:44:26.318Z,2.17
2018-09-09T20:46:58.320Z,2.50
2018-09-09T20:49:29.785Z,2.60
2018-09-09T20:52:01.295Z,2.40
2018-09-09T20:54:32.433Z,2.20
2018-09-09T20:57:04.324Z,2.90
2018-09-09T20:59:35.776Z,3.47
2018-09-09T21:02:07.497Z,2.07
2018-09-09T21:04:38.904Z,2.63
2018-09-09T21:09:41.247Z,2.30
2018-09-09T21:12:13.202Z,2.57
2018-09-09T21:14:44.761Z,2.57
2018-09-09T21:17:16.333Z,2.47
2018-09-09T21:19:47.517Z,2.27
2018-09-09T21:22:19.435Z,3.23
2018-09-09T21:24:50.786Z,2.33
2018-09-09T21:27:22.543Z,2.40
2018-09-09T21:29:54.186Z,2.33
2018-09-09T21:32:26.203Z,2.53
2018-09-09T21:34:57.710Z,2.37
2018-09-09T21:37:29.324Z,2.47
2018-09-09T21:40:00.804Z,2.60
2018-09-09T21:42:32.317Z,2.20
2018-09-09T21:45:03.779Z,2.73
2018-09-09T21:47:35.189Z,3.63
2018-09-09T21:50:06.727Z,2.30
2018-09-09T21:52:38.451Z,2.43
2018-09-09T21:55:09.884Z,2.23
2018-09-09T21:57:41.525Z,2.27
2018-09-09T22:00:14.351Z,2.80
2018-09-09T22:02:45.759Z,3.00
2018-09-09T22:05:17.457Z,3.17
2018-09-09T22:07:48.963Z,2.70
2018-09-09T22:12:51.214Z,2.20
2018-09-09T22:15:22.704Z,2.20
2018-09-09T22:17:54.438Z,2.37
2018-09-09T22:20:25.815Z,2.27
2018-09-09T22:22:57.345Z,2.43
2018-09-09T22:25:28.844Z,2.30
2018-09-09T22:28:00.716Z,2.40
2018-09-09T22:30:32.204Z,2.17
2018-09-09T22:33:03.692Z,2.30
2018-09-09T22:35:35.417Z,2.37
2018-09-09T22:38:07.742Z,2.20
2018-09-09T22:40:39.419Z,2.67
2018-09-09T22:43:10.851Z,3.33
2018-09-09T22:45:42.779Z,2.47
2018-09-09T22:48:14.397Z,2.77
2018-09-09T22:50:45.834Z,2.43
2018-09-09T22:53:17.684Z,2.93
2018-09-09T22:55:49.317Z,2.37
2018-09-09T22:58:20.840Z,3.07
2018-09-09T23:00:52.353Z,2.40
2018-09-09T23:03:23.743Z,1.93
2018-09-09T23:05:55.252Z,2.03
2018-09-09T23:08:26.788Z,3.27
2018-09-09T23:10:58.623Z,2.27
2018-09-09T23:13:30.204Z,2.30
2018-09-09T23:16:01.672Z,2.60
2018-09-09T23:18:33.223Z,2.50
2018-09-09T23:21:04.773Z,3.80
2018-09-09T23:23:36.205Z,3.50
2018-09-09T23:26:07.737Z,3.17
2018-09-09T23:28:39.368Z,3.43
2018-09-09T23:31:10.893Z,2.77
2018-09-09T23:33:42.666Z,2.37
2018-09-09T23:36:14.297Z,2.60
2018-09-09T23:38:45.765Z,2.37
2018-09-09T23:41:16.836Z,2.30
2018-09-09T23:43:47.908Z,2.40
2018-09-09T23:46:19.566Z,2.30
2018-09-09T23:48:51.203Z,2.20
2018-09-09T23:51:22.709Z,2.40
2018-09-09T23:53:54.629Z,3.00
2018-09-09T23:56:25.909Z,2.23
2018-09-09T23:58:57.400Z,2.60
